Time;durP1;ratioP1;P1;durP2;ratioP2;P2;SDS_P1;SDS_P2;PMS_P1;PMS_P2;Temp;Humidity;BMP_temperature;BMP_pressure;BME280_temperature;BME280_humidity;BME280_pressure;Samples;Min_cycle;Max_cycle;Signal;HPM_P1;HPM_P2
2021/09/01 00:01:14;;;;;;;9.23;6.90;;;;;;;9.82;100.00;97035.53;5074617;28;20040;-78
2021/09/01 00:03:40;;;;;;;10.47;7.10;;;;;;;9.82;100.00;97039.94;5066586;28;20998;-78
2021/09/01 00:06:06;;;;;;;8.93;7.13;;;;;;;9.83;100.00;97041.63;5067464;28;20036;-78
2021/09/01 00:08:33;;;;;;;10.73;7.60;;;;;;;9.80;100.00;97041.91;5068744;28;20432;-79
2021/09/01 00:10:59;;;;;;;9.17;6.80;;;;;;;9.77;100.00;97042.16;5069613;28;20187;-79
2021/09/01 00:13:24;;;;;;;9.70;6.40;;;;;;;9.64;100.00;97040.59;5068686;28;20102;-78
2021/09/01 00:15:50;;;;;;;12.27;6.60;;;;;;;9.68;100.00;97041.16;5068531;28;20501;-77
2021/09/01 00:18:16;;;;;;;9.23;6.57;;;;;;;9.69;100.00;97040.19;5067590;28;20490;-78
2021/09/01 00:20:41;;;;;;;9.10;6.07;;;;;;;9.68;100.00;97038.53;5051873;28;20024;-78
2021/09/01 00:23:07;;;;;;;9.23;5.60;;;;;;;9.70;100.00;97043.66;5067524;28;20038;-79
2021/09/01 00:25:33;;;;;;;9.23;5.27;;;;;;;9.65;100.00;97039.63;5068783;28;20493;-78
2021/09/01 00:27:59;;;;;;;8.60;5.30;;;;;;;9.67;100.00;97044.75;5067422;28;20516;-78
2021/09/01 00:30:24;;;;;;;7.83;5.27;;;;;;;9.62;100.00;97047.78;5066075;28;20494;-78
2021/09/01 00:32:50;;;;;;;7.70;5.20;;;;;;;9.56;100.00;97047.50;5066614;28;20031;-78
2021/09/01 00:35:16;;;;;;;6.83;4.43;;;;;;;9.43;100.00;97050.34;5066450;28;20436;-78
2021/09/01 00:37:42;;;;;;;7.90;4.73;;;;;;;9.33;100.00;97052.94;5070337;28;20047;-78
2021/09/01 00:40:08;;;;;;;8.83;5.83;;;;;;;9.36;100.00;97055.28;5068739;28;20097;-78
2021/09/01 00:42:36;;;;;;;10.50;5.60;;;;;;;9.40;100.00;97056.69;5072662;28;20127;-78
2021/09/01 00:45:04;;;;;;;34.97;15.03;;;;;;;9.45;100.00;97056.28;5066892;28;20108;-78
2021/09/01 00:47:30;;;;;;;35.17;15.93;;;;;;;9.47;100.00;97056.97;5068808;28;20471;-78
2021/09/01 00:49:56;;;;;;;28.50;13.70;;;;;;;9.44;100.00;97046.75;5080030;28;20085;-79
2021/09/01 00:52:22;;;;;;;30.33;13.93;;;;;;;9.48;100.00;97048.13;5083007;28;20036;-78
2021/09/01 00:54:49;;;;;;;30.10;14.77;;;;;;;9.41;100.00;97047.00;5065679;28;20063;-78
2021/09/01 00:57:18;;;;;;;28.53;14.17;;;;;;;9.48;100.00;97049.94;5067194;28;20142;-77
2021/09/01 00:59:45;;;;;;;28.03;14.60;;;;;;;9.37;100.00;97061.38;5063667;28;20537;-77
2021/09/01 01:02:11;;;;;;;23.23;13.03;;;;;;;9.30;100.00;97057.59;5045009;28;20114;-77
2021/09/01 01:04:37;;;;;;;21.17;11.77;;;;;;;9.29;100.00;97058.53;5056244;28;20024;-78
2021/09/01 01:07:08;;;;;;;17.93;11.47;;;;;;;9.25;100.00;97052.72;5066095;28;20036;-77
2021/09/01 01:09:35;;;;;;;18.60;10.43;;;;;;;9.28;100.00;97062.13;5056695;28;20032;-78
2021/09/01 01:12:11;;;;;;;19.63;10.87;;;;;;;9.21;100.00;97054.78;5064651;28;20597;-78
2021/09/01 01:14:39;;;;;;;19.43;11.50;;;;;;;9.29;100.00;97058.53;5062358;28;20029;-77
2021/09/01 01:17:06;;;;;;;19.93;11.27;;;;;;;9.28;100.00;97049.00;5065200;28;20035;-77
2021/09/01 01:19:34;;;;;;;15.30;9.50;;;;;;;9.19;100.00;97046.22;5066350;28;21548;-77
2021/09/01 01:21:59;;;;;;;18.90;10.70;;;;;;;9.21;100.00;97053.97;5066728;28;20632;-77
2021/09/01 01:24:57;;;;;;;21.47;11.73;;;;;;;9.16;100.00;97049.13;5066177;28;20187;-77
2021/09/01 01:27:30;;;;;;;14.80;8.57;;;;;;;9.13;100.00;97048.53;5064805;28;20090;-78
2021/09/01 01:30:20;;;;;;;18.00;11.43;;;;;;;9.17;100.00;97042.91;5068445;28;20040;-78
2021/09/01 01:32:48;;;;;;;25.67;13.30;;;;;;;9.18;100.00;97043.72;5050075;28;20054;-78
2021/09/01 01:35:32;;;;;;;29.13;15.20;;;;;;;9.23;100.00;97045.97;5065688;28;20028;-77
2021/09/01 01:38:00;;;;;;;22.17;12.17;;;;;;;9.25;100.00;97039.59;5063677;28;20397;-77
2021/09/01 01:40:26;;;;;;;24.93;13.03;;;;;;;9.17;100.00;97042.91;5067157;28;20504;-77
2021/09/01 01:42:54;;;;;;;24.43;12.43;;;;;;;9.21;100.00;97039.03;5047477;28;20029;-77
2021/09/01 01:45:21;;;;;;;20.23;11.43;;;;;;;9.24;100.00;97040.56;5047047;28;20024;-77
2021/09/01 01:47:47;;;;;;;22.90;12.20;;;;;;;9.25;100.00;97041.41;5065732;28;20032;-78
2021/09/01 01:50:13;;;;;;;16.80;10.90;;;;;;;9.24;100.00;97037.94;5048146;28;20796;-78
2021/09/01 01:52:39;;;;;;;18.93;11.70;;;;;;;9.15;100.00;97043.97;5065079;28;20039;-77
2021/09/01 01:55:10;;;;;;;26.40;14.60;;;;;;;9.12;100.00;97039.00;5064065;28;20060;-77
2021/09/01 01:57:36;;;;;;;34.57;16.40;;;;;;;9.01;100.00;97044.31;5067471;28;20024;-77
2021/09/01 02:00:04;;;;;;;32.70;16.43;;;;;;;9.07;100.00;97046.44;5048375;28;20039;-77
2021/09/01 02:02:37;;;;;;;31.10;15.37;;;;;;;9.10;100.00;97044.38;5071637;28;20033;-77
2021/09/01 02:05:03;;;;;;;23.93;13.07;;;;;;;9.21;100.00;97043.47;5065641;28;20036;-78
2021/09/01 02:07:30;;;;;;;23.07;13.90;;;;;;;9.31;100.00;97039.09;5069318;28;20716;-76
2021/09/01 02:09:56;;;;;;;18.60;11.27;;;;;;;9.31;100.00;97046.13;5067815;28;20036;-77
2021/09/01 02:12:22;;;;;;;17.80;11.93;;;;;;;9.38;100.00;97047.28;5066649;28;20033;-77
2021/09/01 02:14:48;;;;;;;18.00;11.20;;;;;;;9.34;100.00;97045.88;5054301;28;20091;-77
2021/09/01 02:17:14;;;;;;;18.03;10.77;;;;;;;9.24;100.00;97055.50;5067083;28;20037;-77
2021/09/01 02:19:40;;;;;;;20.47;11.37;;;;;;;9.23;100.00;97052.03;5073097;28;20052;-77
2021/09/01 02:22:06;;;;;;;20.93;12.83;;;;;;;9.22;100.00;97060.84;5068188;28;20067;-77
2021/09/01 02:24:32;;;;;;;21.37;14.03;;;;;;;9.24;100.00;97063.38;5067359;28;20533;-78
2021/09/01 02:26:57;;;;;;;22.77;13.40;;;;;;;9.20;100.00;97065.44;5070849;28;20549;-78
2021/09/01 02:29:23;;;;;;;22.37;13.87;;;;;;;9.18;100.00;97069.97;5055849;28;20065;-77
2021/09/01 02:31:49;;;;;;;22.87;11.97;;;;;;;9.16;100.00;97064.84;5075160;28;20033;-77
2021/09/01 02:34:14;;;;;;;18.03;12.17;;;;;;;9.13;100.00;97061.66;5064412;28;20036;-77
2021/09/01 02:36:40;;;;;;;23.03;12.77;;;;;;;9.05;100.00;97067.53;5067195;28;20056;-77
2021/09/01 02:39:06;;;;;;;19.10;11.33;;;;;;;9.03;100.00;97074.72;5074077;28;20037;-78
2021/09/01 02:41:32;;;;;;;15.80;10.37;;;;;;;9.01;100.00;97071.38;5060552;28;20121;-77
2021/09/01 02:43:57;;;;;;;14.27;9.87;;;;;;;8.99;100.00;97073.31;5070048;28;20513;-77
2021/09/01 02:46:23;;;;;;;16.87;10.90;;;;;;;8.98;100.00;97069.03;5075650;28;20032;-77
2021/09/01 02:48:49;;;;;;;17.43;10.93;;;;;;;8.89;100.00;97067.19;5071932;28;20028;-77
2021/09/01 02:51:15;;;;;;;19.57;10.83;;;;;;;8.93;100.00;97074.66;5074819;28;20437;-78
2021/09/01 02:53:40;;;;;;;17.90;11.10;;;;;;;8.91;100.00;97075.75;5079842;28;20032;-78
2021/09/01 02:56:06;;;;;;;19.90;10.73;;;;;;;8.89;100.00;97067.19;5082145;28;20505;-77
2021/09/01 02:58:32;;;;;;;19.23;11.03;;;;;;;8.89;100.00;97062.78;5074105;28;20020;-77
2021/09/01 03:00:57;;;;;;;17.03;11.00;;;;;;;8.89;100.00;97073.25;5069669;28;20021;-77
2021/09/01 03:03:23;;;;;;;17.30;10.40;;;;;;;8.86;100.00;97072.69;5068672;28;20032;-77
2021/09/01 03:05:49;;;;;;;16.77;10.47;;;;;;;8.84;100.00;97061.47;5065404;28;21689;-78
2021/09/01 03:08:15;;;;;;;14.90;9.57;;;;;;;8.85;100.00;97063.13;5051612;28;20032;-77
2021/09/01 03:10:41;;;;;;;15.43;9.30;;;;;;;8.82;100.00;97061.63;5053045;28;20021;-77
2021/09/01 03:13:06;;;;;;;15.80;9.77;;;;;;;8.81;100.00;97067.81;5067797;28;20044;-77
2021/09/01 03:15:33;;;;;;;17.97;9.83;;;;;;;8.77;100.00;97063.78;5069519;28;20498;-77
2021/09/01 03:17:58;;;;;;;18.20;9.47;;;;;;;8.77;100.00;97066.41;5069364;28;20040;-78
2021/09/01 03:20:25;;;;;;;15.27;9.43;;;;;;;8.73;100.00;97067.63;5072842;28;20490;-77
2021/09/01 03:22:51;;;;;;;17.57;10.20;;;;;;;8.72;100.00;97066.78;5069359;28;20059;-77
2021/09/01 03:25:16;;;;;;;15.80;10.10;;;;;;;8.71;100.00;97059.88;5069629;28;20052;-77
2021/09/01 03:27:42;;;;;;;14.97;9.73;;;;;;;8.70;100.00;97063.47;5071458;28;20027;-78
2021/09/01 03:30:08;;;;;;;15.93;9.40;;;;;;;8.66;100.00;97075.16;5067211;28;20111;-77
2021/09/01 03:32:34;;;;;;;18.73;9.77;;;;;;;8.62;100.00;97071.13;5070136;28;20119;-77
2021/09/01 03:35:00;;;;;;;16.60;10.47;;;;;;;8.61;100.00;97073.88;5063847;28;20182;-77
2021/09/01 03:37:26;;;;;;;13.17;8.67;;;;;;;8.62;100.00;97078.19;5070983;28;20075;-77
2021/09/01 03:39:52;;;;;;;15.10;8.37;;;;;;;8.58;100.00;97081.97;5068020;28;20033;-78
2021/09/01 03:42:18;;;;;;;13.97;8.70;;;;;;;8.48;100.00;97074.91;5054000;28;20123;-77
2021/09/01 03:44:43;;;;;;;11.90;8.47;;;;;;;8.45;100.00;97075.16;5072664;28;20028;-77
2021/09/01 03:47:09;;;;;;;14.03;9.33;;;;;;;8.40;100.00;97077.28;5054590;28;20039;-76
2021/09/01 03:49:35;;;;;;;14.00;9.07;;;;;;;8.38;100.00;97076.56;5072351;28;20062;-77
2021/09/01 03:52:00;;;;;;;14.97;8.90;;;;;;;8.35;100.00;97076.81;5069455;28;20028;-77
2021/09/01 03:54:27;;;;;;;20.73;9.93;;;;;;;8.35;100.00;97068.09;5073082;28;20041;-76
2021/09/01 03:56:52;;;;;;;15.80;9.63;;;;;;;8.29;100.00;97066.84;5067242;28;20673;-77
2021/09/01 03:59:18;;;;;;;17.50;10.80;;;;;;;8.24;100.00;97068.97;5071388;28;20039;-77
2021/09/01 04:01:44;;;;;;;14.93;9.40;;;;;;;8.24;100.00;97067.19;5073262;28;20477;-76
2021/09/01 04:04:10;;;;;;;14.03;9.17;;;;;;;8.32;100.00;97071.00;5069320;28;20430;-78
2021/09/01 04:06:35;;;;;;;17.53;9.90;;;;;;;8.26;100.00;97074.94;5066279;28;20032;-77
2021/09/01 04:09:01;;;;;;;14.93;10.17;;;;;;;8.26;100.00;97080.19;5066662;28;20032;-77
2021/09/01 04:11:27;;;;;;;13.63;9.83;;;;;;;8.29;100.00;97073.88;5069353;28;20103;-78
2021/09/01 04:13:54;;;;;;;14.40;9.67;;;;;;;8.25;100.00;97075.91;5068028;28;20056;-78
2021/09/01 04:16:20;;;;;;;12.97;9.00;;;;;;;8.26;100.00;97067.06;5052483;28;20040;-78
2021/09/01 04:18:46;;;;;;;16.13;9.43;;;;;;;8.26;100.00;97073.16;5068425;28;20109;-77
2021/09/01 04:21:11;;;;;;;14.13;9.47;;;;;;;8.29;100.00;97079.09;5050475;28;20041;-78
2021/09/01 04:23:37;;;;;;;15.03;10.27;;;;;;;8.31;100.00;97078.00;5070917;28;20089;-77
2021/09/01 04:26:03;;;;;;;13.60;9.87;;;;;;;8.32;100.00;97079.69;5067090;28;20025;-77
2021/09/01 04:28:29;;;;;;;11.70;9.20;;;;;;;8.32;100.00;97087.56;5070151;28;20037;-76
2021/09/01 04:30:55;;;;;;;12.60;8.47;;;;;;;8.26;100.00;97091.50;5071957;28;20059;-79
2021/09/01 04:33:21;;;;;;;14.17;9.57;;;;;;;8.18;100.00;97096.53;5069544;28;20085;-78
2021/09/01 04:35:46;;;;;;;12.73;9.20;;;;;;;8.20;100.00;97091.97;5068921;28;20720;-79
2021/09/01 04:38:12;;;;;;;17.77;8.90;;;;;;;8.20;100.00;97091.97;5051703;28;20032;-77
2021/09/01 04:40:38;;;;;;;13.80;8.33;;;;;;;8.20;100.00;97089.34;5069291;28;20038;-80
2021/09/01 04:43:04;;;;;;;10.93;7.47;;;;;;;8.21;100.00;97093.63;5072228;28;20470;-78
2021/09/01 04:45:30;;;;;;;28.77;8.30;;;;;;;8.16;100.00;97095.81;5052006;28;20299;-79
2021/09/01 04:47:56;;;;;;;18.40;7.53;;;;;;;8.10;100.00;97104.16;5051478;28;20389;-78
2021/09/01 04:50:22;;;;;;;22.87;7.87;;;;;;;8.13;100.00;97098.66;5069221;28;20036;-78
2021/09/01 04:52:47;;;;;;;9.87;7.17;;;;;;;8.19;100.00;97095.56;5069628;28;20040;-78
2021/09/01 04:55:15;;;;;;;9.63;7.20;;;;;;;8.20;100.00;97105.06;5050727;28;20123;-78
2021/09/01 04:57:41;;;;;;;9.73;6.53;;;;;;;8.22;100.00;97103.19;5053355;28;20032;-78
2021/09/01 05:00:09;;;;;;;10.00;6.77;;;;;;;8.27;100.00;97102.81;5070402;28;20120;-79
2021/09/01 05:02:35;;;;;;;9.27;6.47;;;;;;;8.30;100.00;97107.78;5070306;28;20917;-78
2021/09/01 05:05:00;;;;;;;10.40;6.30;;;;;;;8.34;100.00;97097.91;5065409;28;20094;-77
2021/09/01 05:07:26;;;;;;;8.97;6.67;;;;;;;8.38;100.00;97105.41;5071621;28;20496;-79
2021/09/01 05:09:52;;;;;;;8.37;6.23;;;;;;;8.43;100.00;97113.75;5071267;28;20031;-78
2021/09/01 05:12:17;;;;;;;8.90;6.53;;;;;;;8.43;100.00;97097.19;5070052;28;20078;-78
2021/09/01 05:14:43;;;;;;;12.03;7.57;;;;;;;8.48;100.00;97102.88;5069425;28;20039;-78
2021/09/01 05:17:09;;;;;;;9.13;6.60;;;;;;;8.55;100.00;97104.06;5070082;28;20536;-78
2021/09/01 05:19:35;;;;;;;8.83;6.47;;;;;;;8.67;100.00;97102.22;5069350;28;20036;-78
2021/09/01 05:22:05;;;;;;;10.03;7.13;;;;;;;8.87;100.00;97103.19;5051800;28;20036;-78
2021/09/01 05:24:37;;;;;;;12.73;9.67;;;;;;;9.00;100.00;97106.47;5069777;28;20040;-77
2021/09/01 05:27:16;;;;;;;16.60;7.93;;;;;;;9.19;100.00;97101.34;5071237;28;20064;-79
2021/09/01 05:29:44;;;;;;;9.87;7.03;;;;;;;9.44;100.00;97099.25;5068260;28;20043;-78
2021/09/01 05:32:16;;;;;;;8.87;6.17;;;;;;;9.71;100.00;97103.09;5071470;28;20577;-78
2021/09/01 05:34:42;;;;;;;9.43;6.80;;;;;;;9.91;100.00;97097.78;5074184;28;20451;-78
2021/09/01 05:37:12;;;;;;;9.70;6.73;;;;;;;10.09;100.00;97100.59;5070536;28;20036;-77
2021/09/01 05:39:41;;;;;;;11.33;7.10;;;;;;;10.29;100.00;97098.03;5052590;28;20035;-76
2021/09/01 05:42:08;;;;;;;11.07;6.70;;;;;;;10.61;100.00;97093.34;5075744;28;20024;-79
2021/09/01 05:44:35;;;;;;;9.13;6.47;;;;;;;10.65;100.00;97099.16;5081238;28;21078;-77
2021/09/01 05:47:01;;;;;;;8.90;6.63;;;;;;;10.80;100.00;97104.84;5074265;28;20111;-78
2021/09/01 05:49:28;;;;;;;9.03;6.77;;;;;;;10.51;100.00;97110.94;5067417;28;20078;-77
2021/09/01 05:51:55;;;;;;;8.13;6.30;;;;;;;10.65;100.00;97108.84;5054348;28;20115;-77
2021/09/01 05:54:21;;;;;;;9.67;6.97;;;;;;;11.04;100.00;97105.25;5051700;28;20082;-78
2021/09/01 05:56:49;;;;;;;10.93;7.40;;;;;;;11.32;100.00;97094.78;5069686;28;20029;-78
2021/09/01 05:59:17;;;;;;;10.60;6.70;;;;;;;11.65;100.00;97092.63;5068007;28;20040;-78
2021/09/01 06:01:50;;;;;;;9.43;6.90;;;;;;;11.71;100.00;97092.03;5069599;28;20584;-78
2021/09/01 06:04:17;;;;;;;9.60;7.32;;;;;;;12.05;100.00;97099.41;5069320;28;20575;-78
2021/09/01 06:06:49;;;;;;;9.97;6.77;;;;;;;12.08;100.00;97093.84;5072981;28;20028;-78
2021/09/01 06:09:15;;;;;;;8.77;6.53;;;;;;;11.66;100.00;97097.72;5052532;28;20079;-78
2021/09/01 06:11:45;;;;;;;10.17;6.23;;;;;;;11.61;100.00;97096.50;5072182;28;20024;-78
2021/09/01 06:14:11;;;;;;;10.47;6.30;;;;;;;12.63;97.52;97096.38;5053468;28;20063;-76
2021/09/01 06:16:37;;;;;;;44.17;32.03;;;;;;;13.26;93.69;97093.59;5050577;28;20128;-77
2021/09/01 06:19:03;;;;;;;10.17;6.90;;;;;;;12.73;96.28;97102.41;5068642;28;20107;-79
2021/09/01 06:21:29;;;;;;;8.93;6.23;;;;;;;13.01;95.27;97110.22;5073511;28;20085;-78
2021/09/01 06:23:55;;;;;;;10.63;6.90;;;;;;;13.51;93.08;97104.31;5069296;28;20986;-78
2021/09/01 06:26:21;;;;;;;10.20;6.23;;;;;;;13.46;92.22;97111.91;5053964;28;20033;-78
2021/09/01 06:28:47;;;;;;;9.03;6.37;;;;;;;14.04;90.36;97114.66;5048303;28;20040;-78
2021/09/01 06:31:14;;;;;;;8.73;6.20;;;;;;;14.29;88.43;97112.13;5072666;28;20025;-78
2021/09/01 06:33:40;;;;;;;8.13;5.53;;;;;;;14.65;86.51;97111.91;5069928;28;20035;-79
2021/09/01 06:36:06;;;;;;;9.47;6.17;;;;;;;14.71;88.86;97113.91;5075007;28;20029;-78
2021/09/01 06:38:32;;;;;;;7.47;5.50;;;;;;;15.30;85.17;97110.09;5064309;28;20465;-78
2021/09/01 06:40:58;;;;;;;10.77;7.77;;;;;;;15.48;82.36;97109.06;5047278;28;20029;-79
2021/09/01 06:43:24;;;;;;;10.00;6.35;;;;;;;15.55;82.15;97105.56;5057615;28;20487;-78
2021/09/01 06:45:50;;;;;;;8.95;6.13;;;;;;;15.77;82.40;97104.06;5073161;28;20031;-79
2021/09/01 06:48:16;;;;;;;9.35;5.15;;;;;;;15.87;80.63;97103.06;5074130;28;20398;-78
2021/09/01 06:50:41;;;;;;;8.60;5.72;;;;;;;16.19;79.31;97097.59;5069684;28;20477;-78
2021/09/01 06:53:09;;;;;;;9.20;6.28;;;;;;;16.69;77.01;97104.28;5063881;28;20507;-79
2021/09/01 06:55:35;;;;;;;8.32;5.75;;;;;;;16.58;78.14;97099.38;5066285;28;20024;-79
2021/09/01 06:58:01;;;;;;;9.60;5.93;;;;;;;16.91;76.53;97099.19;5072769;28;20101;-78
2021/09/01 07:00:27;;;;;;;7.40;5.28;;;;;;;17.56;73.95;97090.63;5071365;28;20040;-78
2021/09/01 07:02:54;;;;;;;8.32;5.22;;;;;;;17.76;74.12;97106.06;5063418;28;20035;-79
2021/09/01 07:05:19;;;;;;;9.20;6.50;;;;;;;17.36;76.30;97105.44;5073310;28;20519;-78
2021/09/01 07:07:46;;;;;;;7.93;5.68;;;;;;;17.31;76.91;97115.81;5069955;28;20071;-78
2021/09/01 07:10:13;;;;;;;7.72;5.35;;;;;;;18.16;73.29;97112.78;5076491;28;20120;-78
2021/09/01 07:12:39;;;;;;;6.80;4.82;;;;;;;17.85;72.50;97110.31;5070964;28;20107;-79
2021/09/01 07:15:08;;;;;;;7.78;4.72;;;;;;;17.00;78.89;97118.53;5065726;28;20068;-79
2021/09/01 07:17:35;;;;;;;7.60;4.70;;;;;;;18.57;73.15;97117.56;5080559;28;20750;-78
2021/09/01 07:20:01;;;;;;;9.65;4.93;;;;;;;18.60;70.25;97120.66;5071559;28;20027;-79
2021/09/01 07:22:26;;;;;;;10.15;5.18;;;;;;;19.19;70.79;97119.66;5076723;28;20024;-79
2021/09/01 07:24:53;;;;;;;8.10;4.68;;;;;;;19.00;69.68;97129.09;5074882;28;20016;-79
2021/09/01 07:27:19;;;;;;;7.85;4.05;;;;;;;18.62;70.40;97128.50;5075365;28;20173;-79
2021/09/01 07:29:45;;;;;;;7.20;4.07;;;;;;;19.30;70.16;97127.13;5057401;28;20350;-79
2021/09/01 07:32:11;;;;;;;10.05;5.97;;;;;;;19.87;66.13;97127.16;5057998;28;20036;-79
2021/09/01 07:34:37;;;;;;;8.15;5.97;;;;;;;19.48;67.20;97134.69;5070138;28;20032;-79
2021/09/01 07:37:03;;;;;;;9.32;5.93;;;;;;;18.31;71.17;97134.88;5082110;28;20414;-79
2021/09/01 07:39:28;;;;;;;7.45;5.05;;;;;;;19.13;71.64;97130.25;5062984;28;20074;-78
2021/09/01 07:41:54;;;;;;;10.15;6.07;;;;;;;19.95;68.22;97140.34;5050175;28;20029;-78
2021/09/01 07:44:21;;;;;;;8.82;6.15;;;;;;;20.73;65.31;97140.97;5067174;28;20036;-79
2021/09/01 07:46:46;;;;;;;8.60;5.93;;;;;;;20.48;63.56;97146.78;5071984;28;20024;-78
2021/09/01 07:49:12;;;;;;;10.13;6.78;;;;;;;19.96;65.22;97150.84;5072661;28;20035;-78
2021/09/01 07:51:38;;;;;;;6.78;5.07;;;;;;;20.49;64.16;97137.75;5070176;28;20029;-79
2021/09/01 07:54:03;;;;;;;8.85;6.20;;;;;;;20.18;65.53;97145.41;5072174;28;20766;-76
2021/09/01 07:56:29;;;;;;;7.18;5.25;;;;;;;19.83;67.68;97144.59;5071937;28;20033;-79
2021/09/01 07:58:55;;;;;;;8.23;5.68;;;;;;;20.73;64.65;97148.97;5080857;28;20571;-79
2021/09/01 08:01:21;;;;;;;8.27;5.78;;;;;;;21.40;62.62;97145.41;5067219;28;20882;-79
2021/09/01 08:03:47;;;;;;;7.75;4.68;;;;;;;22.19;59.96;97142.88;5067343;28;20474;-79
2021/09/01 08:06:12;;;;;;;6.72;4.38;;;;;;;22.63;59.88;97144.75;5071858;28;20021;-79
2021/09/01 08:08:38;;;;;;;7.05;4.88;;;;;;;22.78;56.68;97142.66;5061169;28;20870;-80
2021/09/01 08:11:04;;;;;;;8.00;5.43;;;;;;;22.93;56.86;97149.59;5069491;28;20849;-80
2021/09/01 08:13:30;;;;;;;8.65;6.22;;;;;;;22.13;58.62;97147.19;5058761;28;20036;-79
2021/09/01 08:15:55;;;;;;;7.82;5.70;;;;;;;21.09;64.64;97158.50;5078525;28;20024;-79
2021/09/01 08:18:21;;;;;;;9.80;6.38;;;;;;;20.84;62.34;97152.91;5075210;28;20097;-79
2021/09/01 08:20:47;;;;;;;8.35;5.35;;;;;;;21.67;61.16;97164.16;5066415;28;20397;-80
2021/09/01 08:23:13;;;;;;;8.88;6.45;;;;;;;22.54;55.79;97156.78;5076919;28;20047;-79
2021/09/01 08:25:41;;;;;;;8.23;5.28;;;;;;;23.19;54.73;97160.19;5073376;28;20067;-79
2021/09/01 08:28:07;;;;;;;8.75;5.63;;;;;;;23.10;53.98;97160.66;5074632;28;20032;-79
2021/09/01 08:30:34;;;;;;;9.98;5.93;;;;;;;22.75;53.66;97159.16;5074595;28;20555;-79
2021/09/01 08:33:00;;;;;;;7.22;4.80;;;;;;;21.67;57.04;97169.50;5072085;28;20028;-79
2021/09/01 08:35:26;;;;;;;8.85;5.05;;;;;;;22.70;55.13;97163.50;5068881;28;20041;-79
2021/09/01 08:37:52;;;;;;;6.97;4.55;;;;;;;23.57;52.62;97167.31;5070914;28;20025;-79
2021/09/01 08:40:20;;;;;;;6.97;4.82;;;;;;;23.51;53.46;97166.34;5063293;28;20035;-79
2021/09/01 08:42:48;;;;;;;7.50;4.93;;;;;;;24.26;50.41;97159.28;5083061;28;20031;-79
2021/09/01 08:45:14;;;;;;;8.13;4.70;;;;;;;23.95;50.11;97169.13;5070927;28;20028;-79
2021/09/01 08:47:40;;;;;;;7.65;4.65;;;;;;;24.71;47.64;97157.13;5077335;28;20434;-79
2021/09/01 08:50:08;;;;;;;6.75;4.45;;;;;;;24.81;46.91;97167.34;5076704;28;20051;-79
2021/09/01 08:52:37;;;;;;;7.75;5.20;;;;;;;23.29;51.08;97163.19;5078216;28;20028;-77
2021/09/01 08:55:07;;;;;;;9.15;6.47;;;;;;;23.69;47.96;97171.00;5067787;28;20031;-77
2021/09/01 08:57:33;;;;;;;7.32;4.53;;;;;;;23.82;47.63;97170.06;5073765;28;20482;-77
2021/09/01 08:59:59;;;;;;;8.60;4.13;;;;;;;24.30;45.53;97171.22;5066076;28;20485;-76
2021/09/01 09:02:29;;;;;;;6.07;3.72;;;;;;;24.85;43.03;97173.94;5071430;28;20043;-77
2021/09/01 09:04:56;;;;;;;6.60;4.07;;;;;;;24.02;42.77;97172.56;5068487;28;20478;-80
2021/09/01 09:07:24;;;;;;;8.07;5.85;;;;;;;23.18;44.50;97174.63;5068792;28;20103;-77
2021/09/01 09:09:51;;;;;;;8.02;4.35;;;;;;;24.62;41.97;97164.69;5071615;28;20126;-76
2021/09/01 09:12:17;;;;;;;6.60;4.20;;;;;;;23.35;43.50;97166.88;5068628;28;20039;-77
2021/09/01 09:14:48;;;;;;;7.13;3.88;;;;;;;23.09;45.73;97164.38;5047122;28;20074;-78
2021/09/01 09:17:34;;;;;;;16.92;9.00;;;;;;;21.78;50.13;97179.59;5070188;28;20681;-76
2021/09/01 09:20:07;;;;;;;8.98;5.20;;;;;;;20.96;51.06;97180.72;5074111;28;20114;-77
2021/09/01 09:22:37;;;;;;;8.18;4.35;;;;;;;20.05;54.12;97182.72;5047985;28;20510;-77
2021/09/01 09:25:10;;;;;;;7.60;4.05;;;;;;;20.41;56.50;97186.00;5067479;28;20867;-77
2021/09/01 09:27:50;;;;;;;6.60;3.83;;;;;;;21.74;55.05;97178.34;5068634;28;20116;-76
2021/09/01 09:30:28;;;;;;;6.60;4.15;;;;;;;22.80;49.81;97166.56;5076167;28;20024;-76
2021/09/01 09:33:08;;;;;;;5.85;4.00;;;;;;;24.08;43.39;97178.88;5066194;28;20033;-77
2021/09/01 09:35:58;;;;;;;7.63;4.15;;;;;;;23.75;46.28;97163.91;5048230;28;20120;-78
2021/09/01 09:38:34;;;;;;;8.35;5.00;;;;;;;24.56;45.00;97167.47;5055823;28;20036;-77
2021/09/01 09:41:04;;;;;;;7.35;4.88;;;;;;;24.16;45.70;97171.38;5070880;28;20032;-77
2021/09/01 09:43:30;;;;;;;6.65;3.38;;;;;;;24.90;43.72;97156.03;5066889;28;20032;-77
2021/09/01 09:46:10;;;;;;;7.43;3.92;;;;;;;25.79;41.97;97148.09;5063309;28;20036;-78
2021/09/01 09:48:44;;;;;;;6.75;3.75;;;;;;;24.65;42.82;97153.47;5070428;28;20032;-77
2021/09/01 09:51:16;;;;;;;6.32;3.72;;;;;;;23.98;41.37;97153.38;5065922;28;20040;-78
2021/09/01 09:53:48;;;;;;;6.57;3.33;;;;;;;23.68;43.17;97150.56;5069124;28;20504;-79
2021/09/01 09:56:29;;;;;;;8.73;4.22;;;;;;;24.34;41.64;97149.03;5054129;28;20036;-79
2021/09/01 09:58:58;;;;;;;6.13;3.83;;;;;;;22.85;44.23;97152.53;5069784;28;20773;-79
2021/09/01 10:01:25;;;;;;;6.40;3.58;;;;;;;24.59;41.75;97149.00;5075252;28;20028;-80
2021/09/01 10:03:52;;;;;;;5.82;3.70;;;;;;;24.39;40.91;97148.41;5072169;28;20032;-79
2021/09/01 10:06:20;;;;;;;6.03;4.38;;;;;;;22.30;44.33;97155.59;5072905;28;20029;-77
2021/09/01 10:08:51;;;;;;;6.55;4.00;;;;;;;22.06;45.51;97157.09;5067758;28;20027;-79
2021/09/01 10:11:20;;;;;;;7.50;3.90;;;;;;;23.49;45.34;97152.31;5068297;28;20041;-77
2021/09/01 10:13:48;;;;;;;8.57;4.70;;;;;;;24.70;43.23;97152.78;5068564;28;20027;-77
2021/09/01 10:16:19;;;;;;;7.00;4.13;;;;;;;24.60;41.91;97150.63;5053836;28;20131;-79
2021/09/01 10:18:48;;;;;;;5.20;3.25;;;;;;;22.62;46.90;97156.53;5069537;28;20086;-78
2021/09/01 10:21:16;;;;;;;7.72;4.25;;;;;;;24.38;44.23;97154.78;5047617;28;20028;-78
2021/09/01 10:23:44;;;;;;;5.30;3.50;;;;;;;23.83;43.90;97154.75;5067361;28;20039;-79
2021/09/01 10:26:26;;;;;;;7.72;4.18;;;;;;;24.25;41.83;97158.47;5068611;28;20031;-79
2021/09/01 10:28:53;;;;;;;14.18;11.10;;;;;;;25.42;39.50;97149.31;5068966;28;20081;-79
2021/09/01 10:31:21;;;;;;;8.52;3.97;;;;;;;24.80;37.53;97155.75;5064710;28;20024;-78
2021/09/01 10:33:51;;;;;;;6.72;3.80;;;;;;;23.95;41.52;97148.44;5044837;28;20036;-79
2021/09/01 10:36:23;;;;;;;6.20;4.05;;;;;;;23.26;42.83;97150.22;5066883;28;20166;-78
2021/09/01 10:38:49;;;;;;;6.50;3.85;;;;;;;25.16;38.74;97146.00;5066906;28;20130;-80
2021/09/01 10:41:27;;;;;;;6.18;4.03;;;;;;;25.40;38.99;97138.78;5073425;28;20032;-82
2021/09/01 10:44:10;;;;;;;6.35;4.32;;;;;;;25.79;38.97;97144.59;5066485;28;20032;-79
2021/09/01 10:46:54;;;;;;;8.93;3.92;;;;;;;24.32;41.72;97143.09;5070207;28;20040;-79
2021/09/01 10:49:27;;;;;;;7.65;4.40;;;;;;;23.55;42.51;97139.88;5072241;28;20488;-78
2021/09/01 10:51:55;;;;;;;;;;;;;;;24.66;41.74;97136.28;5078126;28;20493;-79
2021/09/01 10:54:36;;;;;;;9.68;4.25;;;;;;;23.84;41.02;97140.28;5070502;28;19919;-83
2021/09/01 10:57:30;;;;;;;6.28;3.92;;;;;;;24.64;41.92;97127.63;5073072;28;20115;-78
2021/09/01 11:00:15;;;;;;;8.35;4.13;;;;;;;25.83;39.42;97125.03;5059619;28;20041;-78
2021/09/01 11:02:50;;;;;;;5.68;3.90;;;;;;;25.58;39.87;97130.59;5072645;28;20048;-78
2021/09/01 11:05:22;;;;;;;6.90;4.00;;;;;;;27.14;38.53;97131.81;5070062;28;20032;-77
2021/09/01 11:07:55;;;;;;;8.07;3.90;;;;;;;27.91;35.61;97128.47;5074392;28;20088;-78
2021/09/01 11:10:20;;;;;;;6.70;4.13;;;;;;;27.07;38.62;97125.69;5077797;28;20033;-78
2021/09/01 11:13:01;;;;;;;6.13;3.88;;;;;;;25.01;41.76;97134.78;5052172;28;20449;-78
2021/09/01 11:15:43;;;;;;;5.80;4.05;;;;;;;23.92;44.37;97140.00;5072051;28;20106;-78
2021/09/01 11:18:09;;;;;;;5.80;3.90;;;;;;;23.70;44.74;97139.56;5070613;28;20149;-78
2021/09/01 11:20:35;;;;;;;6.03;3.65;;;;;;;22.94;45.24;97140.53;5069645;28;20545;-77
2021/09/01 11:23:02;;;;;;;6.53;3.63;;;;;;;22.07;46.14;97140.00;5060869;28;20032;-78
2021/09/01 11:25:32;;;;;;;6.38;3.45;;;;;;;23.62;42.06;97140.66;5075892;28;20028;-78
2021/09/01 11:27:58;;;;;;;5.75;3.70;;;;;;;23.24;42.85;97144.25;5076806;28;20032;-78
2021/09/01 11:30:32;;;;;;;5.63;3.55;;;;;;;22.70;45.29;97144.75;5058851;28;20055;-78